Torax TimeFrame

116 2024-07-14 05:35:02
NameTime LeftWindow Opens
Animated Captain10d 19:442024-07-14 00:30:02
Old World Drake9d 16:592024-07-15 03:15:01
Quiver, The Renegade1d 08:092024-07-23 12:05:02
Vitkros, Hydra of the Deep0d 19:342024-07-24 00:40:02
Howldroid, Tormentor of the Pit0d 18:192024-07-24 01:55:01
Ag Nabak the Abomination0d 15:192024-07-24 04:55:01
Sigil, Lich of Woe0d 13:492024-07-24 06:25:02
Rotborn, Eater of the Dead0d 13:192024-07-24 06:55:02
Melt Bane, The Forbidden Demon Dragon0d 12:592024-07-24 07:15:02
Tylos, The Lord Master0d 11:042024-07-24 09:10:02
Dreg nor, Keeper of the Infernal Essence0d 08:192024-07-24 11:55:01
Terrance, Rebel of Rallis0d 07:042024-07-24 13:10:02
Jazzmin, Maiden of Vitality0d 06:392024-07-24 13:35:01
Ebliss, Fallen Angel of Despair0d 06:192024-07-24 13:55:01
Synge, The Red Dragon0d 05:142024-07-24 15:00:01
Gnorb0d 05:142024-07-24 15:00:01
Sarcrina the Astral Priestess0d 03:592024-07-24 16:15:02
Varsanor, Master of Darkness0d 03:592024-07-24 16:15:02
Mistress of the Sword0d 03:042024-07-24 17:10:03
Detox0d 02:292024-07-24 17:45:02
Grivvek, Protector of the Brood0d 01:242024-07-24 18:50:01
Wanhiroeaz the Devourer0d 01:092024-07-24 19:05:02
Archdevil Yirkon0d 01:042024-07-24 19:10:02
Lord Xordam0d 00:492024-07-24 19:25:02
Tsort0d 00:292024-07-24 19:45:01
Lord Narada0d 00:202024-07-24 20:35:02
Ancient Magus Tarkin0d 01:302024-07-24 21:45:02
Samatha Dark-Soul0d 01:402024-07-24 21:55:01
Amalgamated Apparition0d 01:502024-07-24 22:05:02
Lady Chaos, Queen of the Abyss0d 01:552024-07-24 22:10:02
Rancid, Lord of Thugs0d 02:202024-07-24 22:35:02
Hyrak, Bringer of Nightmares0d 03:002024-07-24 23:15:02
Volgan the Living Ironbark0d 03:252024-07-24 23:40:01
Great Lord Ganeshan0d 04:052024-07-25 00:20:02
Garland, The Lord Keeper0d 04:252024-07-25 00:40:02
Bloodchill the Grizzly0d 05:352024-07-25 01:50:01
Traxodon the Plaguebringer0d 05:552024-07-25 02:10:02
Numerocure, The Black Messenger of Evil0d 07:002024-07-25 03:15:01
Murderface0d 09:102024-07-25 05:25:01
Lord Varan0d 09:152024-07-25 05:30:02
Pinosis0d 09:502024-07-25 06:05:02
Jorun the Blazing Swordsman0d 09:552024-07-25 06:10:01
Slashbrood, Devourer of the Blackness0d 10:302024-07-25 06:45:02
Skybrine The Inescapable0d 11:052024-07-25 07:20:01
Akkel the Enflamed Warrior0d 11:252024-07-25 07:40:02
Lord Sibannac0d 12:002024-07-25 08:15:02
Threk, King of Lords0d 12:052024-07-25 08:20:02
Baron Mu, Dark Rider of the Undead0d 13:452024-07-25 10:00:02
Windstrike The Vile0d 15:152024-07-25 11:30:02
Freezebreed, The Frozen Manipulator0d 15:252024-07-25 11:40:01
Ganja the Stone Golem0d 18:452024-07-25 15:00:02
Crane0d 20:152024-07-25 16:30:02
Zertan, The Collector0d 21:302024-07-25 17:45:02
Shadow1d 00:052024-07-25 20:20:02
Keeper of Nature1d 01:052024-07-25 21:20:02
Brutalitar, Lord of the Underworld1d 02:002024-07-25 22:15:02
Nayark the Mummified Sorcerer1d 02:502024-07-25 23:05:01
Nessam1d 03:102024-07-25 23:25:02
Smoot the Yeti1d 15:502024-07-26 12:05:01
Lord Suka1d 16:402024-07-26 12:55:02
Anguish1d 22:052024-07-26 18:20:02
The Emerald Assassin1d 22:152024-07-26 18:30:02
Lady Ariella2d 00:002024-07-26 20:15:02
Nar Zhul, Slayer of All2d 00:402024-07-26 20:55:01
King Ashnar, Lord of the Unliving2d 08:102024-07-27 04:25:02
Kro Shuk, Doomslayer2d 09:502024-07-27 06:05:01
Hackerphage, Protector of the Gateway2d 17:152024-07-27 13:30:01
Crantos, Defender of Ultimation3d 00:302024-07-27 20:45:02
Emperor Neudeus, Controller of the Universe4d 05:152024-07-29 01:30:02
Zikkir the Dark Archer1148d 15:442021-06-02 04:30:02
Shaik, Servant of Arkron481d 12:542023-03-31 07:20:02
Rook, Hand of Arkron481d 10:142023-03-31 10:00:03
RNGesus262d 01:292023-11-05 18:45:02
Rezun, Demon of Madness63d 20:092024-05-22 00:05:02
Banok, Demon of Insanity63d 03:292024-05-22 16:45:01
Envar, Demon of Lunacy62d 19:292024-05-23 00:45:01
Animation of Elements59d 06:342024-05-26 13:40:02
Valzek, Harbinger of Death56d 11:392024-05-29 08:35:01
Shayar, the Shadow Deity56d 07:542024-05-29 12:20:02
Firan, the Fire Deity55d 21:392024-05-29 22:35:02
Balerion, Dragon of Dread55d 17:042024-05-30 03:10:02
Dlanod, the Crazed Chancellor55d 13:042024-05-30 07:10:02
Viserion, the Necrodragon55d 00:292024-05-30 19:45:02
Gregov, Knight of the Woods54d 23:592024-05-30 20:15:01
Nafir, God of Desolation54d 13:092024-05-31 07:05:02
Rillax, Twin of Wisdom54d 11:392024-05-31 08:35:02
Villax, Twin of Strength54d 05:092024-05-31 15:05:02
Dexor, Victor of Veldara53d 19:142024-06-01 01:00:03
Straya, the Underworld Ruler53d 12:442024-06-01 07:30:02
Kinark, the Kinetic Deity53d 08:292024-06-01 11:45:02
Murfax, Beast of the Caves53d 06:092024-06-01 14:05:01
Animation of Power52d 23:192024-06-01 20:55:02
Animation of Chaos52d 17:592024-06-02 02:15:03
Holgor, the Holy Deity52d 05:142024-06-02 15:00:01
Skarthul the Avenged52d 03:092024-06-02 17:05:02
Agnar, Astral Betrayer51d 15:442024-06-03 04:30:02
Arcon, the Arcane Deity51d 10:092024-06-03 10:05:01
Thanox, Balancer of Chaos51d 04:492024-06-03 15:25:01
Animation of Versatility49d 23:542024-06-04 20:20:02
Esquin, the Kinetic Master41d 06:542024-06-13 13:20:02
Xynak, the Arcane Master40d 17:042024-06-14 03:10:01
Crolvak, the Fire Master40d 16:092024-06-14 04:05:01
Bolkor, the Holy Master40d 10:342024-06-14 09:40:02
Kretok, Descendant of Nature39d 21:092024-06-14 23:05:01
Raiyar, the Shadow Master39d 13:192024-06-15 06:55:02
Karvaz, Lord of Alsayic39d 01:592024-06-15 18:15:01
Felroc, Overseer of Hellfire38d 22:492024-06-15 21:25:02
Q-SEC Commander12d 16:392024-07-12 03:35:01
Sylvanna TorLai12d 00:592024-07-12 19:15:02
Jade Dragonite12d 00:142024-07-12 20:00:03
Lacuste of the Swarm11d 18:392024-07-13 01:35:02
Anvilfist11d 13:142024-07-13 07:00:01
Gorganus of the Wood11d 12:392024-07-13 07:35:02
Ormsul the Putrid10d 22:142024-07-13 22:00:03
Noxious Slug9d 16:342024-07-15 03:40:02
Beast of Cards9d 16:292024-07-15 03:45:01